createdAt,value
2022-11-05T00:02:29.933Z,11.26
2022-11-05T00:05:15.541Z,11.29
2022-11-05T00:08:06.621Z,11.28
2022-11-05T00:10:39.215Z,11.21
2022-11-05T00:13:27.147Z,11.17
2022-11-05T00:16:13.399Z,11.24
2022-11-05T00:18:42.848Z,11.18
2022-11-05T00:21:31.359Z,11.20
2022-11-05T00:24:21.718Z,11.18
2022-11-05T00:26:52.430Z,11.23
2022-11-05T00:29:20.461Z,11.29
2022-11-05T00:31:48.808Z,11.24
2022-11-05T00:34:18.577Z,11.27
2022-11-05T00:36:46.709Z,11.17
2022-11-05T00:39:14.805Z,11.14
2022-11-05T00:41:43.399Z,11.27
2022-11-05T00:44:37.047Z,11.17
2022-11-05T00:47:19.276Z,11.20
2022-11-05T00:49:49.002Z,11.13
2022-11-05T00:52:35.164Z,11.19
2022-11-05T00:55:03.426Z,11.19
2022-11-05T00:57:31.674Z,11.23
2022-11-05T00:59:59.673Z,11.23
2022-11-05T01:02:27.866Z,11.21
2022-11-05T01:04:57.807Z,11.21
2022-11-05T01:07:26.155Z,11.22
2022-11-05T01:09:59.480Z,11.35
2022-11-05T01:12:27.656Z,11.38
2022-11-05T01:14:55.784Z,11.31
2022-11-05T01:17:24.176Z,11.31
2022-11-05T01:19:52.434Z,11.37
2022-11-05T01:22:22.039Z,11.39
2022-11-05T01:24:50.222Z,11.29
2022-11-05T01:27:18.226Z,11.41
2022-11-05T01:29:46.311Z,11.42
2022-11-05T01:32:14.793Z,11.53
2022-11-05T01:34:43.171Z,11.46
2022-11-05T01:37:11.198Z,11.51
2022-11-05T01:39:40.782Z,11.50
2022-11-05T01:42:16.025Z,11.44
2022-11-05T01:45:13.205Z,11.45
2022-11-05T01:47:50.706Z,11.50
2022-11-05T01:50:35.970Z,11.60
2022-11-05T01:53:17.383Z,11.51
2022-11-05T01:55:52.726Z,11.59
2022-11-05T01:58:23.860Z,11.64
2022-11-05T02:00:52.467Z,11.59
2022-11-05T02:03:21.034Z,11.67
2022-11-05T02:05:51.599Z,11.67
2022-11-05T02:08:28.638Z,11.66
2022-11-05T02:10:59.351Z,11.71
2022-11-05T02:13:27.564Z,11.74
2022-11-05T02:16:04.351Z,11.72
2022-11-05T02:18:46.533Z,11.76
2022-11-05T02:21:49.759Z,11.70
2022-11-05T02:24:47.171Z,11.68
2022-11-05T02:27:26.740Z,11.68
2022-11-05T02:30:26.907Z,11.67
2022-11-05T02:33:08.349Z,11.68
2022-11-05T02:35:54.533Z,11.72
2022-11-05T02:38:37.417Z,11.67
2022-11-05T02:41:13.065Z,11.69
2022-11-05T02:43:52.433Z,11.60
2022-11-05T02:46:34.036Z,11.75
2022-11-05T02:49:14.701Z,11.71
2022-11-05T02:51:53.142Z,11.75
2022-11-05T02:54:26.948Z,11.77
2022-11-05T02:56:58.241Z,11.79
2022-11-05T02:59:26.429Z,11.85
2022-11-05T03:01:57.065Z,11.72
2022-11-05T03:04:26.643Z,11.81
2022-11-05T03:07:15.583Z,11.77
2022-11-05T03:10:11.375Z,11.80
2022-11-05T03:12:48.692Z,11.81
2022-11-05T03:15:27.932Z,11.75
2022-11-05T03:18:06.922Z,11.76
2022-11-05T03:20:41.301Z,11.76
2022-11-05T03:23:16.532Z,11.75
2022-11-05T03:25:48.932Z,11.72
2022-11-05T03:28:21.150Z,11.70
2022-11-05T03:30:52.568Z,11.67
2022-11-05T03:33:25.893Z,11.68
2022-11-05T03:35:57.981Z,11.60
2022-11-05T03:38:29.862Z,11.62
2022-11-05T03:41:02.743Z,11.55
2022-11-05T03:43:38.866Z,11.55
2022-11-05T03:46:10.886Z,11.58
2022-11-05T03:48:45.536Z,11.56
2022-11-05T03:51:20.602Z,11.53
2022-11-05T03:53:53.410Z,11.53
2022-11-05T03:56:28.620Z,11.50
2022-11-05T03:58:59.249Z,11.48
2022-11-05T04:01:28.677Z,11.45
2022-11-05T04:03:58.364Z,11.37
2022-11-05T04:06:43.721Z,11.42
2022-11-05T04:09:28.653Z,11.46
2022-11-05T04:12:14.158Z,11.40
2022-11-05T04:14:42.229Z,11.36
2022-11-05T04:17:10.037Z,11.27
2022-11-05T04:19:58.688Z,11.37
2022-11-05T04:22:46.215Z,11.38
2022-11-05T04:25:16.140Z,11.41
2022-11-05T04:27:45.315Z,11.41
2022-11-05T04:30:23.063Z,11.42
2022-11-05T04:33:02.390Z,11.42
2022-11-05T04:35:33.634Z,11.45
2022-11-05T04:38:02.124Z,11.41
2022-11-05T04:40:30.527Z,11.43
2022-11-05T04:42:58.968Z,11.51
2022-11-05T04:45:29.644Z,11.53
2022-11-05T04:47:57.798Z,11.55
2022-11-05T04:50:25.944Z,11.55
2022-11-05T04:52:55.666Z,11.51
2022-11-05T04:55:23.984Z,11.53
2022-11-05T04:57:53.591Z,11.55
2022-11-05T05:00:24.203Z,11.53
2022-11-05T05:02:52.274Z,11.52
2022-11-05T05:05:21.372Z,11.56
2022-11-05T05:07:49.807Z,11.56
2022-11-05T05:10:19.445Z,11.55
2022-11-05T05:12:48.638Z,11.53
2022-11-05T05:15:16.957Z,11.55
2022-11-05T05:17:44.992Z,11.52
2022-11-05T05:20:30.453Z,11.49
2022-11-05T05:22:58.687Z,11.46
2022-11-05T05:25:28.305Z,11.50
2022-11-05T05:27:58.261Z,11.43
2022-11-05T05:30:26.680Z,11.38
2022-11-05T05:32:54.764Z,11.49
2022-11-05T05:35:22.910Z,11.56
2022-11-05T05:37:56.146Z,11.53
2022-11-05T05:40:24.379Z,11.58
2022-11-05T05:42:56.571Z,11.54
2022-11-05T05:45:24.845Z,11.51
2022-11-05T05:47:53.035Z,11.48
2022-11-05T05:50:21.342Z,11.56
2022-11-05T05:52:49.528Z,11.63
2022-11-05T05:55:17.860Z,11.56
2022-11-05T05:57:46.192Z,11.62
2022-11-05T06:00:16.957Z,11.61
2022-11-05T06:02:45.293Z,11.58
2022-11-05T06:05:13.558Z,11.66
2022-11-05T06:07:41.793Z,11.63
2022-11-05T06:10:10.725Z,11.62
2022-11-05T06:12:39.155Z,11.62
2022-11-05T06:15:08.261Z,11.62
2022-11-05T06:17:38.387Z,11.64
2022-11-05T06:20:09.084Z,11.62
2022-11-05T06:22:37.584Z,11.55
2022-11-05T06:25:07.069Z,11.55
2022-11-05T06:27:36.401Z,11.60
2022-11-05T06:30:07.199Z,11.54
2022-11-05T06:32:35.740Z,11.56
2022-11-05T06:35:05.861Z,11.54
2022-11-05T06:37:34.367Z,11.55
2022-11-05T06:40:02.626Z,11.56
2022-11-05T06:42:31.179Z,11.57
2022-11-05T06:44:59.556Z,11.57
2022-11-05T06:47:27.833Z,11.55
2022-11-05T06:49:57.459Z,11.55
2022-11-05T06:52:31.221Z,11.46
2022-11-05T06:54:59.757Z,11.57
2022-11-05T06:57:27.935Z,11.49
2022-11-05T07:00:01.350Z,11.57
2022-11-05T07:02:31.531Z,11.60
2022-11-05T07:04:59.982Z,11.66
2022-11-05T07:07:29.549Z,11.62
2022-11-05T07:09:57.860Z,11.67
2022-11-05T07:12:26.007Z,11.66
2022-11-05T07:14:54.069Z,11.64
2022-11-05T07:17:23.111Z,11.68
2022-11-05T07:19:51.305Z,11.63
2022-11-05T07:22:19.425Z,11.59
2022-11-05T07:24:50.065Z,11.66
2022-11-05T07:27:18.520Z,11.63
2022-11-05T07:29:46.594Z,11.64
2022-11-05T07:32:14.917Z,11.65
2022-11-05T07:34:42.905Z,11.69
2022-11-05T07:37:11.025Z,11.62
2022-11-05T07:39:39.458Z,11.61
2022-11-05T07:42:13.529Z,11.63
2022-11-05T07:44:42.331Z,11.63
2022-11-05T07:47:10.474Z,11.68
2022-11-05T07:49:38.617Z,11.73
2022-11-05T07:52:06.976Z,11.74
2022-11-05T07:54:35.740Z,11.69
2022-11-05T07:57:03.985Z,11.64
2022-11-05T07:59:33.692Z,11.69
2022-11-05T08:02:01.897Z,11.71
2022-11-05T08:04:30.337Z,11.73
2022-11-05T08:06:58.795Z,11.79
2022-11-05T08:09:26.971Z,11.79
2022-11-05T08:11:59.842Z,11.88
2022-11-05T08:14:30.694Z,11.97
2022-11-05T08:17:00.387Z,11.87
2022-11-05T08:19:28.535Z,11.98
2022-11-05T08:21:57.894Z,11.89
2022-11-05T08:24:26.017Z,12.00
2022-11-05T08:26:55.005Z,12.05
2022-11-05T08:29:23.269Z,12.07
2022-11-05T08:31:51.431Z,12.11
2022-11-05T08:34:20.818Z,12.10
2022-11-05T08:36:49.108Z,12.11
2022-11-05T08:39:18.810Z,12.11
2022-11-05T08:41:47.334Z,12.07
2022-11-05T08:44:15.718Z,12.12
2022-11-05T08:46:44.048Z,12.12
2022-11-05T08:49:12.674Z,12.19
2022-11-05T08:51:42.444Z,12.25
2022-11-05T08:54:10.698Z,12.27
2022-11-05T08:56:38.810Z,12.21
2022-11-05T08:59:07.672Z,12.26
2022-11-05T09:01:36.176Z,12.33
2022-11-05T09:04:04.645Z,12.33
2022-11-05T09:06:33.084Z,12.29
2022-11-05T09:09:02.655Z,12.22
2022-11-05T09:11:56.982Z,12.28
2022-11-05T09:14:19.052Z,12.33
2022-11-05T09:16:47.251Z,12.29
2022-11-05T09:19:15.467Z,12.36
2022-11-05T09:21:43.989Z,12.33
2022-11-05T09:24:13.707Z,12.31
2022-11-05T09:26:41.858Z,12.29
2022-11-05T09:29:14.267Z,12.28
2022-11-05T09:31:42.894Z,12.33
2022-11-05T09:34:11.171Z,12.40
2022-11-05T09:36:39.288Z,12.38
2022-11-05T09:39:07.505Z,12.39
2022-11-05T09:41:40.288Z,12.41
2022-11-05T09:44:14.929Z,12.41
2022-11-05T09:46:46.932Z,12.56
2022-11-05T09:49:25.893Z,12.70
2022-11-05T09:51:55.562Z,12.59
2022-11-05T09:54:27.082Z,12.61
2022-11-05T09:56:57.710Z,12.62
2022-11-05T09:59:29.679Z,12.54
2022-11-05T10:02:03.538Z,12.58
2022-11-05T10:04:35.757Z,12.64
2022-11-05T10:07:09.054Z,12.63
2022-11-05T10:09:45.369Z,12.61
2022-11-05T10:12:22.289Z,12.55
2022-11-05T10:14:57.919Z,12.43
2022-11-05T10:17:28.018Z,12.51
2022-11-05T10:20:03.498Z,12.42
2022-11-05T10:22:31.649Z,12.53
2022-11-05T10:25:01.309Z,12.53
2022-11-05T10:27:33.301Z,12.53
2022-11-05T10:30:02.119Z,12.43
2022-11-05T10:32:33.062Z,12.49
2022-11-05T10:35:04.107Z,12.48
2022-11-05T10:37:38.219Z,12.53
2022-11-05T10:40:17.496Z,12.59
2022-11-05T10:42:57.451Z,12.60
2022-11-05T10:45:34.915Z,12.50
2022-11-05T10:48:19.453Z,12.55
2022-11-05T10:50:49.112Z,12.62
2022-11-05T10:53:23.239Z,12.71
2022-11-05T10:55:54.067Z,12.76
2022-11-05T10:58:29.071Z,12.72
2022-11-05T11:01:08.034Z,12.80
2022-11-05T11:03:44.631Z,12.72
2022-11-05T11:06:27.056Z,12.76
2022-11-05T11:08:58.396Z,12.85
2022-11-05T11:11:33.616Z,12.89
2022-11-05T11:14:06.123Z,12.82
2022-11-05T11:16:40.177Z,12.78
2022-11-05T11:19:26.221Z,12.73
2022-11-05T11:22:22.485Z,12.57
2022-11-05T11:24:54.086Z,12.70
2022-11-05T11:27:28.585Z,12.76
2022-11-05T11:30:00.206Z,12.88
2022-11-05T11:32:35.501Z,12.83
2022-11-05T11:35:04.997Z,12.81
2022-11-05T11:37:37.431Z,12.78
2022-11-05T11:40:15.667Z,12.86
2022-11-05T11:42:48.427Z,12.90
2022-11-05T11:45:20.998Z,12.72
2022-11-05T11:47:51.741Z,12.79
2022-11-05T11:50:39.290Z,12.83
2022-11-05T11:53:34.503Z,12.89
2022-11-05T11:56:15.524Z,12.81
2022-11-05T11:58:46.370Z,12.74
2022-11-05T12:01:44.347Z,12.84
2022-11-05T12:04:25.172Z,12.83
2022-11-05T12:07:06.658Z,12.81
2022-11-05T12:09:50.565Z,12.83
2022-11-05T12:12:27.516Z,12.70
2022-11-05T12:15:00.687Z,12.82
2022-11-05T12:17:40.330Z,12.68
2022-11-05T12:20:35.627Z,12.64
2022-11-05T12:23:20.117Z,12.71
2022-11-05T12:25:56.771Z,12.76
2022-11-05T12:28:57.736Z,12.75
2022-11-05T12:31:34.819Z,12.83
2022-11-05T12:34:20.906Z,12.87
2022-11-05T12:37:05.893Z,12.96
2022-11-05T12:39:45.033Z,12.87
2022-11-05T12:42:27.908Z,12.77
2022-11-05T12:45:02.872Z,12.79
2022-11-05T12:47:48.748Z,12.65
2022-11-05T12:50:25.841Z,12.67
2022-11-05T12:53:34.087Z,12.71
2022-11-05T12:56:07.467Z,12.78
2022-11-05T12:58:39.807Z,12.77
2022-11-05T13:01:13.483Z,12.81
2022-11-05T13:03:45.753Z,12.72
2022-11-05T13:06:18.801Z,12.90
2022-11-05T13:08:56.350Z,12.89
2022-11-05T13:11:30.357Z,12.92
2022-11-05T13:14:07.570Z,12.95
2022-11-05T13:16:38.597Z,12.83
2022-11-05T13:19:16.784Z,12.84
2022-11-05T13:21:51.340Z,12.70
2022-11-05T13:24:24.582Z,12.69
2022-11-05T13:26:57.125Z,12.70
2022-11-05T13:29:33.158Z,12.61
2022-11-05T13:32:10.041Z,12.62
2022-11-05T13:34:38.873Z,12.75
2022-11-05T13:37:27.159Z,12.70
2022-11-05T13:39:58.037Z,12.76
2022-11-05T13:42:49.416Z,12.76
2022-11-05T13:45:39.539Z,12.85
2022-11-05T13:48:33.125Z,12.86
2022-11-05T13:51:34.812Z,12.81
2022-11-05T13:54:33.948Z,12.77
2022-11-05T13:57:18.729Z,12.73
2022-11-05T14:00:04.811Z,12.66
2022-11-05T14:02:41.786Z,12.67
2022-11-05T14:05:23.755Z,12.65
2022-11-05T14:07:57.668Z,12.64
2022-11-05T14:10:37.401Z,12.60
2022-11-05T14:13:18.336Z,12.72
2022-11-05T14:16:05.545Z,12.66
2022-11-05T14:18:40.293Z,12.69
2022-11-05T14:21:49.410Z,12.68
2022-11-05T14:24:28.100Z,12.64
2022-11-05T14:27:46.979Z,12.60
2022-11-05T14:30:41.272Z,12.57
2022-11-05T14:33:31.983Z,12.60
2022-11-05T14:36:33.570Z,12.49
2022-11-05T14:39:20.660Z,12.49
2022-11-05T14:42:11.723Z,12.53
2022-11-05T14:44:59.937Z,12.50
2022-11-05T14:47:31.779Z,12.50
2022-11-05T14:50:04.617Z,12.49
2022-11-05T14:52:33.445Z,12.43
2022-11-05T14:55:01.861Z,12.46
2022-11-05T14:58:05.857Z,12.29
2022-11-05T15:00:49.773Z,12.27
2022-11-05T15:03:50.675Z,12.28
2022-11-05T15:06:28.550Z,12.27
2022-11-05T15:09:14.788Z,12.22
2022-11-05T15:12:02.672Z,12.23
2022-11-05T15:14:35.101Z,12.21
2022-11-05T15:17:15.573Z,12.21
2022-11-05T15:19:45.897Z,12.20
2022-11-05T15:22:31.726Z,12.27
2022-11-05T15:25:00.457Z,12.32
2022-11-05T15:27:45.154Z,12.22
2022-11-05T15:30:19.650Z,12.24
2022-11-05T15:32:49.358Z,12.21
2022-11-05T15:35:23.640Z,12.17
2022-11-05T15:37:58.783Z,12.13
2022-11-05T15:40:32.005Z,12.13
2022-11-05T15:43:11.333Z,11.99
2022-11-05T15:45:40.308Z,12.09
2022-11-05T15:48:20.348Z,11.98
2022-11-05T15:50:48.650Z,12.05
2022-11-05T15:53:44.173Z,12.05
2022-11-05T15:56:14.128Z,12.09
2022-11-05T15:58:49.140Z,12.07
2022-11-05T16:01:22.978Z,12.05
2022-11-05T16:03:54.025Z,11.99
2022-11-05T16:06:23.459Z,12.00
2022-11-05T16:08:52.514Z,11.99
2022-11-05T16:11:27.747Z,12.02
2022-11-05T16:14:15.249Z,12.01
2022-11-05T16:16:44.596Z,12.02
2022-11-05T16:19:40.988Z,12.04
2022-11-05T16:22:09.933Z,12.08
2022-11-05T16:24:39.747Z,12.01
2022-11-05T16:27:19.688Z,12.03
2022-11-05T16:29:51.743Z,12.00
2022-11-05T16:32:30.301Z,12.02
2022-11-05T16:35:02.906Z,12.06
2022-11-05T16:37:39.836Z,12.02
2022-11-05T16:40:15.579Z,11.97
2022-11-05T16:42:48.267Z,11.93
2022-11-05T16:45:18.176Z,11.95
2022-11-05T16:47:47.163Z,11.92
2022-11-05T16:50:20.648Z,11.90
2022-11-05T16:52:49.403Z,11.89
2022-11-05T16:55:20.064Z,11.87
2022-11-05T16:57:51.081Z,11.85
2022-11-05T17:00:21.552Z,11.82
2022-11-05T17:02:50.504Z,11.85
2022-11-05T17:05:24.380Z,11.88
2022-11-05T17:07:53.668Z,11.83
2022-11-05T17:10:24.184Z,11.92
2022-11-05T17:12:52.592Z,11.86
2022-11-05T17:15:23.863Z,11.98
2022-11-05T17:17:52.616Z,12.01
2022-11-05T17:20:40.758Z,11.92
2022-11-05T17:23:11.304Z,11.97
2022-11-05T17:25:40.666Z,11.97
2022-11-05T17:28:10.339Z,11.96
2022-11-05T17:30:41.507Z,12.03
2022-11-05T17:33:11.157Z,11.95
2022-11-05T17:35:41.719Z,11.91
2022-11-05T17:38:10.090Z,11.93
2022-11-05T17:40:39.153Z,11.93
2022-11-05T17:43:07.511Z,11.94
2022-11-05T17:45:36.154Z,12.03
2022-11-05T17:48:05.166Z,12.04
2022-11-05T17:50:33.570Z,12.04
2022-11-05T17:53:03.343Z,12.02
2022-11-05T17:55:31.739Z,11.98
2022-11-05T17:58:00.182Z,11.95
2022-11-05T18:00:28.803Z,12.05
2022-11-05T18:02:57.269Z,12.08
2022-11-05T18:05:27.869Z,12.06
2022-11-05T18:07:56.487Z,12.03
2022-11-05T18:10:26.553Z,12.11
2022-11-05T18:12:54.699Z,11.98
2022-11-05T18:15:22.946Z,11.97
2022-11-05T18:20:35.822Z,11.92
2022-11-05T18:23:04.188Z,11.92
2022-11-05T18:25:33.562Z,11.86
2022-11-05T18:28:02.503Z,11.93
2022-11-05T18:30:30.745Z,11.84
2022-11-05T18:32:58.796Z,11.80
2022-11-05T18:35:27.110Z,11.74
2022-11-05T18:37:55.505Z,11.78
2022-11-05T18:40:23.566Z,11.73
2022-11-05T18:42:53.096Z,11.73
2022-11-05T18:45:25.536Z,11.76
2022-11-05T18:47:56.738Z,11.80
2022-11-05T18:50:25.044Z,11.80
2022-11-05T18:52:53.198Z,11.75
2022-11-05T18:55:21.699Z,11.72
2022-11-05T18:57:50.152Z,11.66
2022-11-05T19:00:20.577Z,11.62
2022-11-05T19:02:49.064Z,11.65
2022-11-05T19:05:32.937Z,11.65
2022-11-05T19:08:01.473Z,11.65
2022-11-05T19:10:30.076Z,11.59
2022-11-05T19:12:58.276Z,11.62
2022-11-05T19:15:27.898Z,11.63
2022-11-05T19:17:56.116Z,11.59
2022-11-05T19:20:24.605Z,11.54
2022-11-05T19:22:52.607Z,11.56
2022-11-05T19:25:20.896Z,11.54
2022-11-05T19:27:49.194Z,11.54
2022-11-05T19:30:17.482Z,11.48
2022-11-05T19:32:47.055Z,11.59
2022-11-05T19:35:15.106Z,11.54
2022-11-05T19:37:43.437Z,11.37
2022-11-05T19:40:12.788Z,11.51
2022-11-05T19:42:45.153Z,11.49
2022-11-05T19:48:02.900Z,11.51
2022-11-05T19:50:31.580Z,11.59
2022-11-05T19:53:00.319Z,11.58
2022-11-05T19:55:28.641Z,11.58
2022-11-05T19:57:57.003Z,11.55
2022-11-05T20:00:25.275Z,11.58
2022-11-05T20:02:53.421Z,11.57
2022-11-05T20:05:23.417Z,11.58
2022-11-05T20:07:53.263Z,11.54
2022-11-05T20:10:22.285Z,11.58
2022-11-05T20:12:50.981Z,11.58
2022-11-05T20:15:19.921Z,11.62
2022-11-05T20:17:52.091Z,11.66
2022-11-05T20:20:21.537Z,11.71
2022-11-05T20:22:52.863Z,11.65
2022-11-05T20:25:21.057Z,11.76
2022-11-05T20:27:49.241Z,11.75
2022-11-05T20:30:18.716Z,11.70
2022-11-05T20:32:46.880Z,11.75
2022-11-05T20:35:15.029Z,11.79
2022-11-05T20:37:43.456Z,11.81
2022-11-05T20:40:15.246Z,11.83
2022-11-05T20:42:43.695Z,11.84
2022-11-05T20:45:12.432Z,11.84
2022-11-05T20:47:40.707Z,11.78
2022-11-05T20:50:11.160Z,11.78
2022-11-05T20:52:39.858Z,11.83
2022-11-05T20:55:09.931Z,11.83
2022-11-05T20:57:39.983Z,11.82
2022-11-05T21:00:09.851Z,11.87
2022-11-05T21:02:40.821Z,11.81
2022-11-05T21:05:09.806Z,11.93
2022-11-05T21:07:38.626Z,11.94
2022-11-05T21:10:08.013Z,11.96
2022-11-05T21:12:36.234Z,11.95
2022-11-05T21:15:06.889Z,12.02
2022-11-05T21:17:35.134Z,12.01
2022-11-05T21:20:03.478Z,11.99
2022-11-05T21:22:32.024Z,11.96
2022-11-05T21:25:00.130Z,11.90
2022-11-05T21:27:28.457Z,11.80
2022-11-05T21:29:57.052Z,11.93
2022-11-05T21:32:26.566Z,11.93
2022-11-05T21:34:54.796Z,11.97
2022-11-05T21:37:23.153Z,11.94
2022-11-05T21:39:52.054Z,11.97
2022-11-05T21:42:20.533Z,11.89
2022-11-05T21:44:48.587Z,11.91
2022-11-05T21:47:16.895Z,11.90
2022-11-05T21:49:46.579Z,11.91
2022-11-05T21:52:32.100Z,11.92
2022-11-05T21:55:17.634Z,11.95
2022-11-05T21:58:03.223Z,11.94
2022-11-05T22:00:31.468Z,11.89
2022-11-05T22:03:00.775Z,11.89
2022-11-05T22:05:30.498Z,11.79
2022-11-05T22:07:58.710Z,11.88
2022-11-05T22:10:26.791Z,11.80
2022-11-05T22:12:54.812Z,11.84
2022-11-05T22:15:23.039Z,11.76
2022-11-05T22:17:51.912Z,11.74
2022-11-05T22:20:20.276Z,11.76
2022-11-05T22:22:49.886Z,11.79
2022-11-05T22:25:18.883Z,11.81
2022-11-05T22:27:47.843Z,11.81
2022-11-05T22:30:17.483Z,11.79
2022-11-05T22:32:46.296Z,11.84
2022-11-05T22:35:14.776Z,11.80
2022-11-05T22:37:43.154Z,11.77
2022-11-05T22:40:13.066Z,11.81
2022-11-05T22:42:41.431Z,11.88
2022-11-05T22:45:10.674Z,11.89
2022-11-05T22:47:38.900Z,11.87
2022-11-05T22:50:07.912Z,11.85
2022-11-05T22:52:36.640Z,11.83
2022-11-05T22:55:06.569Z,11.83
2022-11-05T22:57:36.352Z,11.80
2022-11-05T23:00:13.726Z,11.85
2022-11-05T23:02:41.955Z,11.83
2022-11-05T23:05:10.932Z,11.82
2022-11-05T23:07:56.341Z,11.87
2022-11-05T23:10:42.532Z,11.78
2022-11-05T23:13:12.216Z,11.81
2022-11-05T23:15:57.750Z,11.82
2022-11-05T23:18:43.130Z,11.79
2022-11-05T23:21:28.806Z,11.78
2022-11-05T23:24:05.918Z,11.91
2022-11-05T23:26:54.106Z,11.88
2022-11-05T23:29:25.380Z,11.87
2022-11-05T23:32:11.278Z,11.78
2022-11-05T23:34:40.108Z,11.86
2022-11-05T23:37:27.793Z,11.84
2022-11-05T23:39:55.908Z,11.90
2022-11-05T23:42:42.038Z,11.89
2022-11-05T23:45:29.883Z,11.89
2022-11-05T23:48:15.587Z,12.00
2022-11-05T23:50:45.948Z,12.01
2022-11-05T23:53:14.665Z,11.91
2022-11-05T23:55:43.449Z,11.94
2022-11-05T23:58:12.738Z,11.89
